createdAt,value
2023-03-18T00:00:49.003Z,1.00
2023-03-18T00:03:16.462Z,0.60
2023-03-18T00:05:43.786Z,1.00
2023-03-18T00:08:11.645Z,1.00
2023-03-18T00:10:39.834Z,1.00
2023-03-18T00:13:07.439Z,2.60
2023-03-18T00:15:34.668Z,1.80
2023-03-18T00:18:05.158Z,0.40
2023-03-18T00:20:45.500Z,0.00
2023-03-18T00:23:13.314Z,1.00
2023-03-18T00:25:40.572Z,1.80
2023-03-18T00:28:08.378Z,0.40
2023-03-18T00:30:39.292Z,0.80
2023-03-18T00:33:08.188Z,3.80
2023-03-18T00:35:36.504Z,0.00
2023-03-18T00:38:07.646Z,0.60
2023-03-18T00:41:01.537Z,1.00
2023-03-18T00:43:33.980Z,1.00
2023-03-18T00:46:03.992Z,1.40
2023-03-18T00:48:31.636Z,1.80
2023-03-18T00:50:58.960Z,1.00
2023-03-18T00:53:26.361Z,1.40
2023-03-18T00:55:54.063Z,0.60
2023-03-18T00:58:21.494Z,0.00
2023-03-18T01:00:48.929Z,0.40
2023-03-18T01:03:16.346Z,1.80
2023-03-18T01:05:44.178Z,0.20
2023-03-18T01:08:12.583Z,1.80
2023-03-18T01:10:39.889Z,0.00
2023-03-18T01:13:07.349Z,0.40
2023-03-18T01:15:34.968Z,2.60
2023-03-18T01:18:02.346Z,3.00
2023-03-18T01:20:30.597Z,3.00
2023-03-18T01:22:59.148Z,0.20
2023-03-18T01:25:27.577Z,0.00
2023-03-18T01:27:55.839Z,1.00
2023-03-18T01:30:24.297Z,1.00
2023-03-18T01:32:54.716Z,0.00
2023-03-18T01:35:22.697Z,0.00
2023-03-18T01:37:51.683Z,1.00
2023-03-18T01:40:19.509Z,1.00
2023-03-18T01:42:55.771Z,1.00
2023-03-18T01:45:28.803Z,2.20
2023-03-18T01:47:58.958Z,1.00
2023-03-18T01:50:31.132Z,2.60
2023-03-18T01:53:05.347Z,1.00
2023-03-18T01:55:33.519Z,3.60
2023-03-18T01:58:04.257Z,1.40
2023-03-18T02:00:31.776Z,0.60
2023-03-18T02:02:59.321Z,1.00
2023-03-18T02:05:28.725Z,1.40
2023-03-18T02:07:56.050Z,0.60
2023-03-18T02:10:26.838Z,4.00
2023-03-18T02:13:06.988Z,1.80
2023-03-18T02:15:46.104Z,0.00
2023-03-18T02:18:19.680Z,2.20
2023-03-18T02:21:11.683Z,0.20
2023-03-18T02:24:06.063Z,1.00
2023-03-18T02:26:39.958Z,0.00
2023-03-18T02:29:10.620Z,1.00
2023-03-18T02:31:49.966Z,1.00
2023-03-18T02:34:25.074Z,1.40
2023-03-18T02:36:55.409Z,0.40
2023-03-18T02:39:23.320Z,1.40
2023-03-18T02:41:53.515Z,3.40
2023-03-18T02:44:21.720Z,0.60
2023-03-18T02:47:14.449Z,2.60
2023-03-18T02:49:41.794Z,1.00
2023-03-18T02:52:10.112Z,2.80
2023-03-18T02:54:37.631Z,2.20
2023-03-18T02:57:05.016Z,1.00
2023-03-18T02:59:32.909Z,0.20
2023-03-18T03:02:01.709Z,1.00
2023-03-18T03:04:29.236Z,1.00
2023-03-18T03:06:57.596Z,0.00
2023-03-18T03:09:36.419Z,0.00
2023-03-18T03:12:05.673Z,1.00
2023-03-18T03:14:33.930Z,0.60
2023-03-18T03:17:02.855Z,1.00
2023-03-18T03:19:31.118Z,1.80
2023-03-18T03:21:59.089Z,0.00
2023-03-18T03:24:26.679Z,2.20
2023-03-18T03:26:54.227Z,1.00
2023-03-18T03:29:21.843Z,1.00
2023-03-18T03:31:50.010Z,3.00
2023-03-18T03:34:17.285Z,0.00
2023-03-18T03:36:45.028Z,0.00
2023-03-18T03:39:12.718Z,0.40
2023-03-18T03:41:39.952Z,1.00
2023-03-18T03:44:07.530Z,1.00
2023-03-18T03:46:36.243Z,0.60
2023-03-18T03:49:04.825Z,0.60
2023-03-18T03:51:32.072Z,0.80
2023-03-18T03:53:59.292Z,0.60
2023-03-18T03:56:27.424Z,1.00
2023-03-18T03:58:54.710Z,0.40
2023-03-18T04:01:25.220Z,1.00
2023-03-18T04:03:55.706Z,1.00
2023-03-18T04:06:23.754Z,2.60
2023-03-18T04:08:59.184Z,2.20
2023-03-18T04:11:26.495Z,0.20
2023-03-18T04:13:53.931Z,0.00
2023-03-18T04:16:21.581Z,0.20
2023-03-18T04:18:48.930Z,0.20
2023-03-18T04:21:16.680Z,0.00
2023-03-18T04:23:48.793Z,1.00
2023-03-18T04:26:17.134Z,2.60
2023-03-18T04:28:44.817Z,0.40
2023-03-18T04:31:18.717Z,1.80
2023-03-18T04:33:46.096Z,1.00
2023-03-18T04:36:13.663Z,0.00
2023-03-18T04:38:41.012Z,3.00
2023-03-18T04:41:14.350Z,0.00
2023-03-18T04:43:41.832Z,0.00
2023-03-18T04:46:10.525Z,0.00
2023-03-18T04:48:38.806Z,1.00
2023-03-18T04:51:12.715Z,1.00
2023-03-18T04:53:40.670Z,0.00
2023-03-18T04:56:09.368Z,0.00
2023-03-18T04:58:49.591Z,1.00
2023-03-18T05:01:21.780Z,0.60
2023-03-18T05:03:49.224Z,0.00
2023-03-18T05:06:30.289Z,0.00
2023-03-18T05:09:02.390Z,0.00
2023-03-18T05:11:33.885Z,1.00
2023-03-18T05:14:09.535Z,0.00
2023-03-18T05:16:43.001Z,0.00
2023-03-18T05:19:13.235Z,0.00
2023-03-18T05:21:49.125Z,0.00
2023-03-18T05:24:17.874Z,1.00
2023-03-18T05:26:45.500Z,0.00
2023-03-18T05:29:14.148Z,0.00
2023-03-18T05:31:58.222Z,1.00
2023-03-18T05:34:27.525Z,0.00
2023-03-18T05:37:02.440Z,0.60
2023-03-18T05:39:30.653Z,1.00
2023-03-18T05:41:58.261Z,1.00
2023-03-18T05:44:38.767Z,0.00
2023-03-18T05:47:06.929Z,0.80
2023-03-18T05:49:43.316Z,0.40
2023-03-18T05:52:17.751Z,1.00
2023-03-18T05:54:48.513Z,0.00
2023-03-18T05:57:21.320Z,0.60
2023-03-18T05:59:55.712Z,1.00
2023-03-18T06:02:25.166Z,1.40
2023-03-18T06:04:52.807Z,0.80
2023-03-18T06:07:20.928Z,0.00
2023-03-18T06:09:54.539Z,0.00
2023-03-18T06:12:24.233Z,0.00
2023-03-18T06:14:52.529Z,0.00
2023-03-18T06:17:24.820Z,0.00
2023-03-18T06:19:52.742Z,0.00
2023-03-18T06:22:20.185Z,0.00
2023-03-18T06:24:48.477Z,0.00
2023-03-18T06:27:17.964Z,0.00
2023-03-18T06:29:49.619Z,0.00
2023-03-18T06:32:19.353Z,0.00
2023-03-18T06:34:47.014Z,0.00
2023-03-18T06:37:15.687Z,0.00
2023-03-18T06:39:49.968Z,0.00
2023-03-18T06:42:18.154Z,1.00
2023-03-18T06:44:54.909Z,3.40
2023-03-18T06:47:31.850Z,0.00
2023-03-18T06:49:59.388Z,1.00
2023-03-18T06:52:34.316Z,1.00
2023-03-18T06:55:10.607Z,1.00
2023-03-18T06:57:43.681Z,0.20
2023-03-18T07:00:13.805Z,0.80
2023-03-18T07:02:46.611Z,0.60
2023-03-18T07:05:17.386Z,0.00
2023-03-18T07:07:46.528Z,0.00
2023-03-18T07:10:25.928Z,2.00
2023-03-18T07:12:58.103Z,0.00
2023-03-18T07:15:26.663Z,1.00
2023-03-18T07:18:01.035Z,1.00
2023-03-18T07:20:29.025Z,1.00
2023-03-18T07:22:57.052Z,0.00
2023-03-18T07:25:24.419Z,1.00
2023-03-18T07:27:52.451Z,1.20
2023-03-18T07:30:20.804Z,0.00
2023-03-18T07:32:48.442Z,0.00
2023-03-18T07:35:16.475Z,0.00
2023-03-18T07:37:43.988Z,0.40
2023-03-18T07:40:12.325Z,1.00
2023-03-18T07:42:40.032Z,0.40
2023-03-18T07:45:09.840Z,0.20
2023-03-18T07:47:38.066Z,0.60
2023-03-18T07:50:06.499Z,1.00
2023-03-18T07:52:34.141Z,1.00
2023-03-18T07:55:02.026Z,0.80
2023-03-18T07:57:29.363Z,0.00
2023-03-18T07:59:57.062Z,1.00
2023-03-18T08:02:25.899Z,0.00
2023-03-18T08:04:58.422Z,1.00
2023-03-18T08:07:27.869Z,0.40
2023-03-18T08:09:57.732Z,0.80
2023-03-18T08:12:51.547Z,0.60
2023-03-18T08:15:19.854Z,0.00
2023-03-18T08:17:51.564Z,0.00
2023-03-18T08:20:19.343Z,0.00
2023-03-18T08:22:49.078Z,1.00
2023-03-18T08:25:18.549Z,1.00
2023-03-18T08:27:46.157Z,0.00
2023-03-18T08:30:14.264Z,0.00
2023-03-18T08:32:43.371Z,0.00
2023-03-18T08:35:13.417Z,1.00
2023-03-18T08:40:18.263Z,0.60
2023-03-18T08:42:46.069Z,0.60
2023-03-18T08:45:14.534Z,0.40
2023-03-18T08:47:48.591Z,0.20
2023-03-18T08:50:16.660Z,1.00
2023-03-18T08:52:44.239Z,0.80
2023-03-18T08:55:11.827Z,1.00
2023-03-18T08:57:44.028Z,0.20
2023-03-18T09:00:12.085Z,1.20
2023-03-18T09:02:39.633Z,0.60
2023-03-18T09:05:09.224Z,0.00
2023-03-18T09:07:37.925Z,0.00
2023-03-18T09:10:13.318Z,0.00
2023-03-18T09:12:44.248Z,1.00
2023-03-18T09:15:13.985Z,1.00
2023-03-18T09:17:56.981Z,0.60
2023-03-18T09:20:31.191Z,0.40
2023-03-18T09:23:02.554Z,1.40
2023-03-18T09:25:30.267Z,1.00
2023-03-18T09:27:58.050Z,0.00
2023-03-18T09:30:26.667Z,0.00
2023-03-18T09:32:54.998Z,0.20
2023-03-18T09:35:22.786Z,0.60
2023-03-18T09:37:50.368Z,0.00
2023-03-18T09:40:29.963Z,0.00
2023-03-18T09:43:16.173Z,1.00
2023-03-18T09:45:58.370Z,0.40
2023-03-18T09:48:42.581Z,0.00
2023-03-18T09:51:53.800Z,1.00
2023-03-18T09:54:56.689Z,1.00
2023-03-18T09:57:43.066Z,0.00
2023-03-18T10:00:38.096Z,1.00
2023-03-18T10:03:15.703Z,1.00
2023-03-18T10:05:59.024Z,0.80
2023-03-18T10:08:48.397Z,0.00
2023-03-18T10:11:50.726Z,0.00
2023-03-18T10:14:54.383Z,0.00
2023-03-18T10:17:41.854Z,0.00
2023-03-18T10:20:50.990Z,2.00
2023-03-18T10:23:50.140Z,0.00
2023-03-18T10:26:30.123Z,1.00
2023-03-18T10:29:04.217Z,1.00
2023-03-18T10:31:50.568Z,0.00
2023-03-18T10:34:23.539Z,0.60
2023-03-18T10:37:03.461Z,0.00
2023-03-18T10:39:33.897Z,0.00
2023-03-18T10:42:17.834Z,0.20
2023-03-18T10:44:46.698Z,0.00
2023-03-18T10:47:35.271Z,1.00
2023-03-18T10:50:18.159Z,0.00
2023-03-18T10:53:01.654Z,0.40
2023-03-18T10:55:46.319Z,0.00
2023-03-18T10:58:19.019Z,0.00
2023-03-18T11:00:46.744Z,0.80
2023-03-18T11:03:34.568Z,0.00
2023-03-18T11:06:05.086Z,1.00
2023-03-18T11:08:42.057Z,0.60
2023-03-18T11:11:49.521Z,0.40
2023-03-18T11:14:22.475Z,0.00
2023-03-18T11:17:01.127Z,0.00
2023-03-18T11:19:40.059Z,0.00
2023-03-18T11:22:21.927Z,0.40
2023-03-18T11:25:14.158Z,0.40
2023-03-18T11:27:51.410Z,0.00
2023-03-18T11:30:39.076Z,1.00
2023-03-18T11:33:20.351Z,0.00
2023-03-18T11:35:58.302Z,1.00
2023-03-18T11:38:36.296Z,0.20
2023-03-18T11:41:09.116Z,1.00
2023-03-18T11:43:38.155Z,0.00
2023-03-18T11:46:17.653Z,1.20
2023-03-18T11:48:44.926Z,0.80
2023-03-18T11:51:35.531Z,1.00
2023-03-18T11:54:18.730Z,0.40
2023-03-18T11:57:02.905Z,0.00
2023-03-18T11:59:57.065Z,0.00
2023-03-18T12:02:43.064Z,0.00
2023-03-18T12:05:43.760Z,0.20
2023-03-18T12:08:20.990Z,1.00
2023-03-18T12:11:06.196Z,0.80
2023-03-18T12:14:01.686Z,0.20
2023-03-18T12:17:01.973Z,0.00
2023-03-18T12:19:36.065Z,4.20
2023-03-18T12:22:09.653Z,1.00
2023-03-18T12:24:46.321Z,0.00
2023-03-18T12:27:38.770Z,0.00
2023-03-18T12:30:43.955Z,1.00
2023-03-18T12:33:49.189Z,1.00
2023-03-18T12:36:26.168Z,0.80
2023-03-18T12:38:53.548Z,1.00
2023-03-18T12:41:44.164Z,0.00
2023-03-18T12:44:50.148Z,1.00
2023-03-18T12:47:29.788Z,0.80
2023-03-18T12:50:18.561Z,0.00
2023-03-18T12:52:55.663Z,0.00
2023-03-18T12:55:34.993Z,0.00
2023-03-18T12:58:27.483Z,2.60
2023-03-18T13:01:11.882Z,1.00
2023-03-18T13:03:59.118Z,0.60
2023-03-18T13:06:44.740Z,0.60
2023-03-18T13:09:12.246Z,0.40
2023-03-18T13:12:06.719Z,0.00
2023-03-18T13:14:39.379Z,0.20
2023-03-18T13:17:22.116Z,0.00
2023-03-18T13:19:49.990Z,1.20
2023-03-18T13:22:36.288Z,0.00
2023-03-18T13:25:47.348Z,0.00
2023-03-18T13:28:26.020Z,0.80
2023-03-18T13:31:01.627Z,0.00
2023-03-18T13:34:04.611Z,0.80
2023-03-18T13:37:02.745Z,1.00
2023-03-18T13:40:09.683Z,0.40
2023-03-18T13:42:40.720Z,1.00
2023-03-18T13:45:29.622Z,1.20
2023-03-18T13:48:09.977Z,0.80
2023-03-18T13:50:42.540Z,1.00
2023-03-18T13:53:31.655Z,1.00
2023-03-18T13:56:30.877Z,2.00
2023-03-18T13:59:06.083Z,1.00
2023-03-18T14:01:54.057Z,3.20
2023-03-18T14:04:50.345Z,1.20
2023-03-18T14:07:19.998Z,0.40
2023-03-18T14:09:51.792Z,1.00
2023-03-18T14:12:31.603Z,0.00
2023-03-18T14:15:25.041Z,1.60
2023-03-18T14:17:58.658Z,0.00
2023-03-18T14:20:43.264Z,1.40
2023-03-18T14:23:33.646Z,0.00
2023-03-18T14:26:08.009Z,1.00
2023-03-18T14:28:43.211Z,1.00
2023-03-18T14:31:21.499Z,2.00
2023-03-18T14:34:11.020Z,1.00
2023-03-18T14:36:47.764Z,0.60
2023-03-18T14:39:29.586Z,1.00
2023-03-18T14:42:01.448Z,1.00
2023-03-18T14:44:50.825Z,0.20
2023-03-18T14:47:37.507Z,1.00
2023-03-18T14:50:23.133Z,1.60
2023-03-18T14:53:20.544Z,1.00
2023-03-18T14:55:48.389Z,2.20
2023-03-18T14:58:20.480Z,1.20
2023-03-18T15:00:52.678Z,1.00
2023-03-18T15:03:30.679Z,0.00
2023-03-18T15:06:03.908Z,0.00
2023-03-18T15:08:47.169Z,2.00
2023-03-18T15:11:17.388Z,1.40
2023-03-18T15:13:45.194Z,1.00
2023-03-18T15:16:20.274Z,2.80
2023-03-18T15:18:55.025Z,1.60
2023-03-18T15:21:42.203Z,2.00
2023-03-18T15:24:10.636Z,3.00
2023-03-18T15:26:41.504Z,2.40
2023-03-18T15:29:33.437Z,2.00
2023-03-18T15:32:26.251Z,2.60
2023-03-18T15:35:14.669Z,1.20
2023-03-18T15:37:44.809Z,2.00
2023-03-18T15:40:55.903Z,3.20
2023-03-18T15:43:36.624Z,5.00
2023-03-18T15:46:31.359Z,1.80
2023-03-18T15:49:02.369Z,2.00
2023-03-18T15:51:49.896Z,0.00
2023-03-18T15:54:24.986Z,4.00
2023-03-18T15:56:55.463Z,2.40
2023-03-18T15:59:31.406Z,3.40
2023-03-18T16:02:00.135Z,1.20
2023-03-18T16:04:37.108Z,1.00
2023-03-18T16:07:06.467Z,2.00
2023-03-18T16:09:35.045Z,2.00
2023-03-18T16:12:15.722Z,2.00
2023-03-18T16:14:45.179Z,2.00
2023-03-18T16:17:21.088Z,2.80
2023-03-18T16:19:55.853Z,2.00
2023-03-18T16:22:23.680Z,1.60
2023-03-18T16:24:51.327Z,3.60
2023-03-18T16:27:41.325Z,2.00
2023-03-18T16:30:17.948Z,4.00
2023-03-18T16:32:48.422Z,0.00
2023-03-18T16:35:18.354Z,4.00
2023-03-18T16:37:48.191Z,2.60
2023-03-18T16:40:31.565Z,3.00
2023-03-18T16:42:59.352Z,4.80
2023-03-18T16:45:31.532Z,3.40
2023-03-18T16:48:12.633Z,5.00
2023-03-18T16:50:43.029Z,4.00
2023-03-18T16:53:28.896Z,1.60
2023-03-18T16:56:33.228Z,3.40
2023-03-18T17:01:45.905Z,2.80
2023-03-18T17:04:22.718Z,2.40
2023-03-18T17:06:52.434Z,0.40
2023-03-18T17:09:20.686Z,5.00
2023-03-18T17:11:50.733Z,2.00
2023-03-18T17:14:35.848Z,5.00
2023-03-18T17:17:06.903Z,2.00
2023-03-18T17:19:35.576Z,3.60
2023-03-18T17:22:27.984Z,4.40
2023-03-18T17:24:55.558Z,5.20
2023-03-18T17:27:29.098Z,4.80
2023-03-18T17:29:56.722Z,4.00
2023-03-18T17:32:24.600Z,4.60
2023-03-18T17:34:53.705Z,4.80
2023-03-18T17:37:24.894Z,4.00
2023-03-18T17:39:52.675Z,5.00
2023-03-18T17:42:44.646Z,3.20
2023-03-18T17:45:37.443Z,2.40
2023-03-18T17:48:11.509Z,2.00
2023-03-18T17:50:46.624Z,1.60
2023-03-18T17:53:24.396Z,2.80
2023-03-18T17:55:53.834Z,5.00
2023-03-18T17:58:24.616Z,5.00
2023-03-18T18:00:54.240Z,1.00
2023-03-18T18:03:25.850Z,3.80
2023-03-18T18:06:02.714Z,1.60
2023-03-18T18:08:31.973Z,4.00
2023-03-18T18:11:18.156Z,4.00
2023-03-18T18:13:45.678Z,4.40
2023-03-18T18:16:13.363Z,3.80
2023-03-18T18:18:41.787Z,2.00
2023-03-18T18:21:21.423Z,4.00
2023-03-18T18:23:49.259Z,4.00
2023-03-18T18:26:19.806Z,2.80
2023-03-18T18:28:54.444Z,4.00
2023-03-18T18:31:23.805Z,4.80
2023-03-18T18:33:52.639Z,5.00
2023-03-18T18:36:19.975Z,2.80
2023-03-18T18:38:51.231Z,5.00
2023-03-18T18:41:18.730Z,5.00
2023-03-18T18:43:46.164Z,4.00
2023-03-18T18:46:18.129Z,5.20
2023-03-18T18:48:54.181Z,1.80
2023-03-18T18:51:23.624Z,2.00
2023-03-18T18:53:56.673Z,5.40
2023-03-18T18:56:35.330Z,2.40
2023-03-18T18:59:32.733Z,2.00
2023-03-18T19:02:03.561Z,4.60
2023-03-18T19:04:33.592Z,3.20
2023-03-18T19:07:07.050Z,2.00
2023-03-18T19:09:35.632Z,4.20
2023-03-18T19:12:06.105Z,4.60
2023-03-18T19:14:34.402Z,3.60
2023-03-18T19:17:04.586Z,2.40
2023-03-18T19:19:40.030Z,4.00
2023-03-18T19:22:17.253Z,5.20
2023-03-18T19:24:48.418Z,2.40
2023-03-18T19:27:28.999Z,3.60
2023-03-18T19:29:59.181Z,2.80
2023-03-18T19:32:27.460Z,2.80
2023-03-18T19:34:55.116Z,3.20
2023-03-18T19:37:27.531Z,4.60
2023-03-18T19:39:56.406Z,3.60
2023-03-18T19:42:23.931Z,1.20
2023-03-18T19:44:51.507Z,3.60
2023-03-18T19:47:25.609Z,4.40
2023-03-18T19:49:53.263Z,4.60
2023-03-18T19:52:23.169Z,3.60
2023-03-18T19:54:51.597Z,4.00
2023-03-18T19:57:29.102Z,4.20
2023-03-18T20:00:01.477Z,2.00
2023-03-18T20:02:31.769Z,2.00
2023-03-18T20:05:02.502Z,4.00
2023-03-18T20:07:32.870Z,4.00
2023-03-18T20:10:00.403Z,4.20
2023-03-18T20:12:37.992Z,4.80
2023-03-18T20:15:08.051Z,4.80
2023-03-18T20:18:02.098Z,5.60
2023-03-18T20:20:31.820Z,2.80
2023-03-18T20:23:10.482Z,4.60
2023-03-18T20:25:42.419Z,4.20
2023-03-18T20:28:21.845Z,4.40
2023-03-18T20:30:54.169Z,5.80
2023-03-18T20:33:22.857Z,5.00
2023-03-18T20:35:52.713Z,1.60
2023-03-18T20:38:28.610Z,2.00
2023-03-18T20:40:56.977Z,5.80
2023-03-18T20:43:26.803Z,3.60
2023-03-18T20:45:57.096Z,1.00
2023-03-18T20:48:24.850Z,6.20
2023-03-18T20:50:52.864Z,5.40
2023-03-18T20:53:26.259Z,4.40
2023-03-18T20:55:54.007Z,5.00
2023-03-18T20:58:24.094Z,4.40
2023-03-18T21:00:52.557Z,4.40
2023-03-18T21:03:35.570Z,2.40
2023-03-18T21:06:06.847Z,6.20
2023-03-18T21:08:34.376Z,2.20
2023-03-18T21:11:02.413Z,3.20
2023-03-18T21:13:39.619Z,4.80
2023-03-18T21:16:13.167Z,6.20
2023-03-18T21:18:46.000Z,4.00
2023-03-18T21:21:23.971Z,5.00
2023-03-18T21:23:54.152Z,7.00
2023-03-18T21:26:23.952Z,3.20
2023-03-18T21:28:52.684Z,5.20
2023-03-18T21:31:33.219Z,4.40
2023-03-18T21:34:01.286Z,2.00
2023-03-18T21:36:28.617Z,4.40
2023-03-18T21:38:56.020Z,4.00
2023-03-18T21:41:28.266Z,6.40
2023-03-18T21:43:55.533Z,3.60
2023-03-18T21:46:24.918Z,5.40
2023-03-18T21:48:52.749Z,8.00
2023-03-18T21:51:37.560Z,2.80
2023-03-18T21:54:06.184Z,4.60
2023-03-18T21:56:33.554Z,1.00
2023-03-18T21:59:00.737Z,2.40
2023-03-18T22:01:32.481Z,4.20
2023-03-18T22:04:00.256Z,4.40
2023-03-18T22:06:27.571Z,6.60
2023-03-18T22:08:57.017Z,5.60
2023-03-18T22:11:24.479Z,7.00
2023-03-18T22:13:51.826Z,4.40
2023-03-18T22:16:19.157Z,4.80
2023-03-18T22:18:47.594Z,5.00
2023-03-18T22:21:19.970Z,3.20
2023-03-18T22:23:47.532Z,2.80
2023-03-18T22:26:17.009Z,6.00
2023-03-18T22:28:44.990Z,2.40
2023-03-18T22:31:18.870Z,2.40
2023-03-18T22:33:46.804Z,2.40
2023-03-18T22:36:15.736Z,4.40
2023-03-18T22:38:43.662Z,4.60
2023-03-18T22:41:29.499Z,2.80
2023-03-18T22:44:00.277Z,2.00
2023-03-18T22:46:28.637Z,6.20
2023-03-18T22:48:56.165Z,1.80
2023-03-18T22:51:33.406Z,6.20
2023-03-18T22:54:00.812Z,5.40
2023-03-18T22:56:28.040Z,7.00
2023-03-18T22:58:55.826Z,4.60
2023-03-18T23:01:29.955Z,5.00
2023-03-18T23:03:57.297Z,2.00
2023-03-18T23:06:25.064Z,5.00
2023-03-18T23:08:52.488Z,2.40
2023-03-18T23:11:19.779Z,5.00
2023-03-18T23:13:50.904Z,4.00
2023-03-18T23:16:21.191Z,4.20
2023-03-18T23:18:49.199Z,6.80
2023-03-18T23:21:22.141Z,4.60
2023-03-18T23:23:50.151Z,4.80
2023-03-18T23:26:17.957Z,4.60
2023-03-18T23:28:46.041Z,2.80
2023-03-18T23:31:15.847Z,4.20
2023-03-18T23:33:43.769Z,5.40
2023-03-18T23:36:11.270Z,3.60
2023-03-18T23:38:38.635Z,4.80
2023-03-18T23:41:07.337Z,4.60
2023-03-18T23:43:34.697Z,4.60
2023-03-18T23:46:02.519Z,8.00
2023-03-18T23:48:30.104Z,7.20
2023-03-18T23:50:57.333Z,5.00
2023-03-18T23:53:24.829Z,2.00
2023-03-18T23:55:52.082Z,8.00
2023-03-18T23:58:19.475Z,6.60
